To NAV CANADA Home Page Login to a new session Search on AWWS site Disclaimer Vers la page française équivalente Tips FAQ What's new on the site To the Forecasts and Observations / NOTAM section To "File a Flight Plan" website Publications and other links Update of the User's profile FIC Telephone Numbers My Weather Data Folder Route Weather Data Regional Weather Data Local Weather Data To the Forecasts and Observations / NOTAM section
Request Generated 12/17/2018 at 00:55:30 UTC . Weather information available at that time is displayed.


Go to a specific product

Save this request - Inactive

METAR/TAF

CALGARY/YYC CALGARY INTL/AB    

METAR CYYC 170000Z 22003KT 20SM FEW076 FEW180 SCT240 02/M05 A2971 RMK AC1AC1CI3 AC TR SLP112=
METAR CYYC 162300Z 09005KT 050V140 20SM FEW076 FEW160 BKN230 M00/M05 A2972 RMK AC1AC2CI3 AC TR SLP118=
METAR CYYC 162200Z 17004KT 30SM FEW076 FEW130 BKN230 02/M05 A2974 RMK AC1AC2CI3 AC TR SLP121=

TAF CYYC 162338Z 1700/1724 VRB03KT P6SM FEW080 SCT140 BKN230
BECMG 1704/1706 25005KT
FM171200 VRB03KT P6SM BKN250
BECMG 1714/1716 26012KT
FM171800 25012G22KT P6SM SKC
BECMG 1722/1724 23008KT
RMK NXT FCST BY 170300Z=

CALGARY/SPRINGBANK/AB    (show WxCam)

METAR CYBW 170000Z AUTO 31002KT 9SM CLR M03/M07 A2971 RMK SLP122=
METAR CYBW 162300Z AUTO VRB03KT 9SM CLR 00/M06 A2972 RMK SLP119=
METAR CYBW 162200Z AUTO 05003KT 340V060 9SM CLR 02/M06 A2974 RMK SLP121=

TAF CYBW 162338Z 1700/1705 VRB03KT P6SM SCT240
RMK FCST BASED ON AUTO OBS. NXT FCST WILL BE ISSUED AT 171245Z=


GRAPHICAL FA CLOUDS & WEATHER FORECASTS
To the Product Selector
Graphical FA gfacn32      

GRAPHICAL FA ICING, TURBULENCE & FREEZING LEVEL FORECASTS
To the Product Selector
Graphical FA gfacn32      

Your time UTC time
Weather data provided by Environment Canada and NAV CANADA